New Haven, OH (44850)

11:24 AM EST on February 25, 2017 (GMT -0500)
Peru Olena Road East | | Change Station

Elev 912 ft 41.15 °N, 82.57 °W | Updated 3 minutes ago

Overcast
Overcast
39.0 °F
Feels Like 34 °F
N
7.5
Wind Variable Wind from West
Gusts 15.5 mph

Today
High -- | Low -- °F
--% Chance of Precip.
Yesterday
High -- | Low -- °F
Precip. -- in
Pressure 29.65 in
Visibility 10.0 miles
Clouds Mostly Cloudy 3200 ft
Mostly Cloudy 4000 ft
Overcast 5500 ft
Windchill 34 °F
Dew Point 32 °F
Humidity 74%
Rainfall 0.12 in
Snow Depth Not available.
7:10 AM 6:17 PM
Waning Crescent, 1% visible
METAR KMFD 251552Z 24018G32KT 10SM BKN032 BKN040 OVC055 03/M03 A2964 RMK AO2 PK WND 26032/1543 SLP041 T00281028
Pressure 29.65 in
Visibility 10.0 miles
Clouds Mostly Cloudy 3200 ft
Mostly Cloudy 4000 ft
Overcast 5500 ft
Windchill 34 °F
Dew Point 32 °F
Humidity 74%
Rainfall 0.12 in
Snow Depth Not available.
7:10 AM 6:17 PM
Waning Crescent, 1% visible
METAR KMFD 251552Z 24018G32KT 10SM BKN032 BKN040 OVC055 03/M03 A2964 RMK AO2 PK WND 26032/1543 SLP041 T00281028

Get Your Daily Forecast Email!

Thanks for signing up!

Be on the lookout for a verification email in your inbox.

You'll start receiving the daily forecast at 8 AM.

×

10-Day Weather Forecast

Almanac

Astronomy

Feb. 25, 2017 Rise Set
Actual Time
Civil Twilight
Nautical Twilight
Astronomical Twilight
Moon
Length of Visible Light
Length of Day
Tomorrow will be .
, % of the Moon is Illuminated

Today's Extremes

State Highs State Lows

Community

WunderPhotos

Upload Photos

1,962,540 photos uploaded!

WunderBlog® & News

Nearby

Air Quality

  Air Quality AQ Index Pollutant
Not available.

Snow Depth

Station Depth Elevation

Earthquake Activity

City Distance Mag. Time & Date
Minimum magnitude displayed is 2.5.

Coastal Water Temperatures

Place Temperature

Stations

Nearby Weather Stations

Station Location Temp. Windchill Dew Point Humidity Wind Precip. Elev Updated Type
                   

Watches & Warnings

There are currently no watches in effect.